Time;durP1;ratioP1;P1;durP2;ratioP2;P2;SDS_P1;SDS_P2;PMS_P1;PMS_P2;Temp;Humidity;BMP_temperature;BMP_pressure;BME280_temperature;BME280_humidity;BME280_pressure;Samples;Min_cycle;Max_cycle;Signal;HPM_P1;HPM_P2
2022/05/28 00:01:16;;;;;;;0.88;0.45;;;13.50;99.90;;;;;;5034830;28;20380;-71
2022/05/28 00:03:42;;;;;;;0.30;0.30;;;13.50;99.90;;;;;;5052583;28;20083;-72
2022/05/28 00:08:35;;;;;;;0.22;0.20;;;13.50;99.90;;;;;;5030865;28;20504;-72
2022/05/28 00:11:09;;;;;;;0.10;0.10;;;13.60;99.90;;;;;;5034426;28;20018;-73
2022/05/28 00:13:34;;;;;;;0.35;0.35;;;13.50;99.90;;;;;;5033522;28;20488;-73
2022/05/28 00:16:00;;;;;;;0.20;0.20;;;13.30;99.90;;;;;;5034760;28;20021;-72
2022/05/28 00:18:28;;;;;;;0.95;0.60;;;13.30;99.90;;;;;;5032808;28;20029;-73
2022/05/28 00:20:53;;;;;;;0.10;0.10;;;13.30;99.90;;;;;;5033846;28;20026;-73
2022/05/28 00:23:19;;;;;;;0.10;0.10;;;13.20;99.90;;;;;;5015428;28;20044;-73
2022/05/28 00:25:46;;;;;;;0.17;0.17;;;13.30;99.90;;;;;;5032575;28;20032;-72
2022/05/28 00:28:12;;;;;;;0.40;0.40;;;13.20;99.90;;;;;;5031680;28;20429;-73
2022/05/28 00:30:38;;;;;;;0.20;0.20;;;13.30;99.90;;;;;;5032434;28;20045;-72
2022/05/28 00:33:04;;;;;;;1.20;0.40;;;13.30;99.90;;;;;;5032387;28;20029;-73
2022/05/28 00:35:30;;;;;;;0.50;0.50;;;13.30;99.90;;;;;;5014875;28;20103;-72
2022/05/28 00:37:56;;;;;;;0.10;0.10;;;13.20;99.90;;;;;;5032079;28;20175;-72
2022/05/28 00:40:24;;;;;;;0.10;0.10;;;13.40;99.90;;;;;;5031743;28;20062;-73
2022/05/28 00:42:51;;;;;;;3.30;0.30;;;13.60;99.90;;;;;;5032309;28;20583;-73
2022/05/28 00:45:16;;;;;;;1.25;0.65;;;13.60;99.90;;;;;;5032348;28;20017;-72
2022/05/28 00:47:55;;;;;;;0.40;0.40;;;13.50;99.90;;;;;;5031897;28;20028;-73
2022/05/28 00:50:21;;;;;;;0.35;0.20;;;13.40;99.90;;;;;;5032088;28;20033;-73
2022/05/28 00:52:47;;;;;;;0.30;0.28;;;13.40;99.90;;;;;;5032096;28;20037;-73
2022/05/28 00:55:15;;;;;;;0.90;0.57;;;13.40;99.90;;;;;;5032066;28;20511;-73
2022/05/28 00:57:42;;;;;;;0.30;0.30;;;13.40;99.90;;;;;;5031852;28;20032;-73
2022/05/28 01:00:11;;;;;;;0.17;0.17;;;13.50;99.90;;;;;;5031989;28;20022;-73
2022/05/28 01:02:54;;;;;;;0.10;0.10;;;13.60;99.90;;;;;;5014174;28;20527;-73
2022/05/28 01:05:29;;;;;;;0.20;0.20;;;13.60;99.90;;;;;;5032237;28;20033;-73
2022/05/28 01:08:16;;;;;;;0.10;0.10;;;13.50;99.90;;;;;;5031548;28;20406;-73
2022/05/28 01:10:47;;;;;;;0.10;0.10;;;13.50;99.90;;;;;;5031775;28;20022;-73
2022/05/28 01:13:38;;;;;;;0.20;0.20;;;13.60;99.90;;;;;;5014189;28;20026;-73
2022/05/28 01:16:10;;;;;;;0.30;0.30;;;13.50;99.90;;;;;;5024602;28;20068;-72
2022/05/28 01:18:42;;;;;;;0.20;0.20;;;13.40;99.90;;;;;;5031673;28;20052;-73
2022/05/28 01:21:40;;;;;;;0.10;0.10;;;13.40;99.90;;;;;;5031662;28;20029;-73
2022/05/28 01:24:40;;;;;;;0.68;0.20;;;13.40;99.90;;;;;;5031668;28;20025;-73
2022/05/28 01:27:14;;;;;;;0.10;0.10;;;13.60;99.90;;;;;;5031624;28;20025;-72
2022/05/28 01:29:54;;;;;;;0.10;0.10;;;13.70;99.90;;;;;;5031740;28;20366;-73
2022/05/28 01:32:23;;;;;;;1.17;1.10;;;13.60;99.90;;;;;;5013991;28;20511;-73
2022/05/28 01:34:49;;;;;;;0.30;0.30;;;13.40;99.90;;;;;;5031721;28;20029;-72
2022/05/28 01:37:17;;;;;;;0.50;0.50;;;13.10;99.90;;;;;;5031418;28;20029;-73
2022/05/28 01:39:46;;;;;;;0.38;0.38;;;13.10;99.90;;;;;;5031583;28;20460;-73
2022/05/28 01:42:14;;;;;;;0.20;0.20;;;13.00;99.90;;;;;;5031548;28;20029;-73
2022/05/28 01:44:42;;;;;;;0.10;0.10;;;13.10;99.90;;;;;;5031870;28;20036;-74
2022/05/28 01:47:10;;;;;;;0.60;0.20;;;13.10;99.90;;;;;;5031297;28;20049;-73
2022/05/28 01:49:37;;;;;;;0.10;0.10;;;13.20;99.90;;;;;;5031742;28;20021;-73
2022/05/28 01:52:03;;;;;;;0.20;0.20;;;13.20;99.90;;;;;;5034063;28;20021;-73
2022/05/28 01:54:35;;;;;;;0.22;0.22;;;13.30;99.90;;;;;;5035410;28;20033;-73
2022/05/28 01:57:01;;;;;;;0.52;0.52;;;13.10;99.90;;;;;;5017761;28;20017;-73
2022/05/28 01:59:31;;;;;;;0.65;0.30;;;13.10;99.90;;;;;;5035291;28;20032;-73
2022/05/28 02:01:58;;;;;;;0.20;0.20;;;13.30;99.90;;;;;;5017517;28;20490;-73
2022/05/28 02:04:25;;;;;;;0.10;0.10;;;13.30;99.90;;;;;;5017795;28;20049;-73
2022/05/28 02:06:51;;;;;;;0.55;0.55;;;13.50;99.90;;;;;;5034791;28;20499;-73
2022/05/28 02:09:24;;;;;;;1.75;0.40;;;13.60;99.90;;;;;;5034856;28;20109;-73
2022/05/28 02:12:13;;;;;;;0.20;0.20;;;13.40;99.90;;;;;;5035032;28;20048;-73
2022/05/28 02:15:00;;;;;;;0.13;0.13;;;13.40;99.90;;;;;;5034952;28;20025;-73
2022/05/28 02:18:02;;;;;;;0.20;0.20;;;13.30;99.90;;;;;;5016911;28;20025;-73
2022/05/28 02:20:39;;;;;;;0.40;0.40;;;13.40;99.90;;;;;;4991016;28;20442;-74
2022/05/28 02:23:18;;;;;;;0.20;0.20;;;13.40;99.90;;;;;;5034723;28;20056;-73
2022/05/28 02:25:53;;;;;;;0.10;0.10;;;13.50;99.90;;;;;;5016868;28;20021;-73
2022/05/28 02:28:23;;;;;;;0.13;0.13;;;13.50;99.90;;;;;;5016771;28;20086;-73
2022/05/28 02:30:54;;;;;;;0.10;0.10;;;13.60;99.90;;;;;;5034615;28;20013;-73
2022/05/28 02:33:21;;;;;;;0.30;0.30;;;13.50;99.90;;;;;;5017119;28;20025;-73
2022/05/28 02:35:47;;;;;;;1.00;0.28;;;13.50;99.90;;;;;;5047001;22;20087;-75
2022/05/28 02:38:14;;;;;;;0.05;0.05;;;13.30;99.90;;;;;;5055522;28;20064;-75
2022/05/28 02:40:41;;;;;;;0.20;0.20;;;13.30;99.90;;;;;;5054588;28;20104;-72
2022/05/28 02:43:06;;;;;;;1.88;1.75;;;13.30;99.90;;;;;;5054285;28;20480;-72
2022/05/28 02:45:32;;;;;;;0.20;0.20;;;13.40;99.90;;;;;;5036420;28;20021;-72
2022/05/28 02:47:58;;;;;;;0.30;0.30;;;13.20;99.90;;;;;;5054310;28;20025;-72
2022/05/28 02:50:27;;;;;;;1.55;0.43;;;13.00;99.90;;;;;;5054178;28;20108;-72
2022/05/28 02:52:55;;;;;;;0.30;0.30;;;13.00;99.90;;;;;;5054115;28;20512;-71
2022/05/28 02:55:21;;;;;;;0.17;0.17;;;12.90;99.90;;;;;;5054079;28;20476;-72
2022/05/28 02:57:46;;;;;;;2.92;2.65;;;13.00;99.90;;;;;;5053954;28;20083;-72
2022/05/28 03:00:14;;;;;;;0.70;0.43;;;13.00;99.90;;;;;;5054393;28;20045;-72
2022/05/28 03:02:41;;;;;;;1.23;1.13;;;13.10;99.90;;;;;;5053738;28;20029;-71
2022/05/28 03:05:08;;;;;;;0.70;0.70;;;13.20;99.90;;;;;;5053923;28;20031;-72
2022/05/28 03:07:34;;;;;;;0.20;0.20;;;13.10;99.90;;;;;;5053743;28;20025;-72
2022/05/28 03:10:00;;;;;;;0.35;0.35;;;13.20;99.90;;;;;;5053856;28;20047;-72
2022/05/28 03:12:25;;;;;;;0.10;0.10;;;13.30;99.90;;;;;;5053870;28;20392;-72
2022/05/28 03:14:51;;;;;;;0.10;0.10;;;13.30;99.90;;;;;;5053810;28;20107;-72
2022/05/28 03:17:17;;;;;;;0.20;0.20;;;13.60;99.90;;;;;;5035696;28;20533;-72
2022/05/28 03:19:43;;;;;;;0.20;0.20;;;13.80;99.90;;;;;;5035809;28;20146;-72
2022/05/28 03:22:08;;;;;;;0.20;0.20;;;13.70;99.90;;;;;;5053775;28;20074;-72
2022/05/28 03:24:34;;;;;;;0.20;0.20;;;13.50;99.90;;;;;;5053595;28;20020;-71
2022/05/28 03:27:00;;;;;;;0.20;0.20;;;13.40;99.90;;;;;;5053478;28;20025;-71
2022/05/28 03:29:26;;;;;;;0.20;0.20;;;13.30;99.90;;;;;;5035442;28;20040;-72
2022/05/28 03:31:52;;;;;;;0.20;0.20;;;13.00;99.90;;;;;;5053479;28;20102;-72
2022/05/28 03:34:17;;;;;;;0.10;0.10;;;13.00;99.90;;;;;;5053369;28;20056;-72
2022/05/28 03:36:43;;;;;;;0.38;0.38;;;12.90;99.90;;;;;;5053121;28;20033;-72
2022/05/28 03:39:10;;;;;;;0.10;0.10;;;12.80;99.90;;;;;;5053163;28;20033;-72
2022/05/28 03:41:35;;;;;;;0.10;0.10;;;12.90;99.90;;;;;;5053185;28;20449;-72
2022/05/28 03:44:01;;;;;;;0.10;0.10;;;13.00;99.90;;;;;;5053143;28;20083;-72
2022/05/28 03:46:30;;;;;;;0.10;0.10;;;13.10;99.90;;;;;;5053033;28;20047;-72
2022/05/28 03:49:00;;;;;;;0.20;0.20;;;13.20;99.90;;;;;;5052957;28;20140;-72
2022/05/28 03:51:26;;;;;;;0.10;0.10;;;13.30;99.90;;;;;;5053006;28;20074;-72
2022/05/28 03:53:51;;;;;;;0.15;0.15;;;13.40;99.90;;;;;;5052931;28;20032;-72
2022/05/28 03:56:19;;;;;;;0.17;0.17;;;13.50;99.90;;;;;;5034985;28;20048;-72
2022/05/28 03:58:44;;;;;;;0.20;0.20;;;13.80;99.90;;;;;;5035022;28;20082;-72
2022/05/28 04:01:10;;;;;;;0.50;0.50;;;13.70;99.90;;;;;;5052914;28;20040;-72
2022/05/28 04:03:36;;;;;;;0.10;0.10;;;13.80;99.90;;;;;;5035419;28;20029;-72
2022/05/28 04:06:03;;;;;;;0.10;0.10;;;13.70;99.90;;;;;;5034927;28;20021;-73
2022/05/28 04:08:29;;;;;;;0.10;0.10;;;13.70;99.90;;;;;;5052928;28;20025;-72
2022/05/28 04:10:54;;;;;;;0.20;0.20;;;13.80;99.90;;;;;;5052702;28;20430;-73
2022/05/28 04:13:20;;;;;;;0.10;0.10;;;13.80;99.90;;;;;;5052364;28;20048;-72
2022/05/28 04:15:49;;;;;;;0.10;0.10;;;13.80;99.90;;;;;;5055595;28;20027;-75
2022/05/28 04:18:15;;;;;;;0.10;0.10;;;13.80;99.90;;;;;;5036459;28;20024;-72
2022/05/28 04:20:41;;;;;;;0.82;0.45;;;13.80;99.90;;;;;;5034658;28;20025;-72
2022/05/28 04:23:07;;;;;;;0.10;0.10;;;13.90;99.90;;;;;;5034494;28;20025;-72
2022/05/28 04:25:32;;;;;;;0.10;0.10;;;14.00;99.90;;;;;;5034441;28;20017;-72
2022/05/28 04:27:58;;;;;;;0.10;0.10;;;14.10;99.90;;;;;;5052389;28;20390;-72
2022/05/28 04:30:24;;;;;;;0.10;0.10;;;14.00;99.90;;;;;;5034547;28;20045;-72
2022/05/28 04:32:50;;;;;;;0.20;0.20;;;14.00;99.90;;;;;;5052373;28;20098;-72
2022/05/28 04:35:16;;;;;;;0.10;0.10;;;14.10;99.90;;;;;;5052574;28;20159;-72
2022/05/28 04:37:42;;;;;;;0.10;0.10;;;14.10;99.90;;;;;;5052075;28;20091;-73
2022/05/28 04:40:09;;;;;;;0.10;0.10;;;14.10;99.90;;;;;;5018030;28;20102;-72
2022/05/28 04:42:34;;;;;;;0.10;0.10;;;14.30;99.90;;;;;;5034301;28;20051;-72
2022/05/28 04:45:00;;;;;;;0.10;0.10;;;14.10;99.90;;;;;;5052402;28;20021;-72
2022/05/28 04:47:26;;;;;;;0.05;0.05;;;14.00;99.90;;;;;;5052236;28;20065;-72
2022/05/28 04:49:52;;;;;;;0.10;0.10;;;13.90;99.90;;;;;;5053016;28;20052;-72
2022/05/28 04:52:18;;;;;;;0.10;0.10;;;13.80;99.90;;;;;;5034365;28;20033;-73
2022/05/28 04:54:44;;;;;;;0.00;0.00;;;13.70;99.90;;;;;;5051952;28;20484;-72
2022/05/28 04:57:09;;;;;;;0.20;0.20;;;13.60;99.90;;;;;;5051865;28;20028;-72
2022/05/28 04:59:35;;;;;;;0.10;0.10;;;13.70;99.90;;;;;;5052089;28;20029;-73
2022/05/28 05:02:01;;;;;;;1.65;0.30;;;13.70;99.90;;;;;;5034302;28;20392;-72
2022/05/28 05:04:27;;;;;;;0.10;0.10;;;13.60;99.90;;;;;;5034199;28;20021;-72
2022/05/28 05:06:52;;;;;;;0.22;0.22;;;13.70;99.90;;;;;;5052055;28;20025;-72
2022/05/28 05:09:18;;;;;;;0.10;0.10;;;13.70;99.90;;;;;;5051878;28;20472;-72
2022/05/28 05:11:44;;;;;;;0.45;0.45;;;13.70;99.90;;;;;;5051864;28;20102;-72
2022/05/28 05:14:09;;;;;;;0.10;0.10;;;13.70;99.90;;;;;;5051821;28;20099;-72
2022/05/28 05:16:35;;;;;;;0.30;0.30;;;13.80;99.90;;;;;;5051792;28;20105;-73
2022/05/28 05:19:01;;;;;;;0.10;0.10;;;13.80;99.90;;;;;;5051730;28;20112;-73
2022/05/28 05:21:27;;;;;;;0.30;0.30;;;13.50;99.90;;;;;;5051776;28;20127;-73
2022/05/28 05:23:52;;;;;;;0.05;0.05;;;13.60;99.90;;;;;;5051655;28;20025;-72
2022/05/28 05:26:20;;;;;;;0.00;0.00;;;13.70;99.90;;;;;;5054612;28;20075;-73
2022/05/28 05:28:46;;;;;;;0.10;0.10;;;13.60;99.90;;;;;;5055674;28;20024;-73
2022/05/28 05:31:13;;;;;;;0.10;0.10;;;13.30;99.90;;;;;;5055720;28;20033;-72
2022/05/28 05:33:39;;;;;;;0.08;0.08;;;13.30;99.90;;;;;;5055733;28;20039;-73
2022/05/28 05:36:05;;;;;;;0.10;0.10;;;13.40;99.90;;;;;;5037744;28;20037;-73
2022/05/28 05:38:31;;;;;;;0.10;0.10;;;13.50;99.90;;;;;;5055674;28;20032;-73
2022/05/28 05:40:57;;;;;;;0.50;0.50;;;13.50;99.90;;;;;;5038260;28;20044;-73
2022/05/28 05:43:23;;;;;;;0.00;0.00;;;13.50;99.90;;;;;;5074093;23;20037;-77
2022/05/28 05:45:58;;;;;;;0.20;0.20;;;13.40;99.90;;;;;;5060072;28;20024;-77
2022/05/28 05:48:24;;;;;;;0.20;0.20;;;13.40;99.90;;;;;;5059271;28;20028;-76
2022/05/28 05:50:50;;;;;;;0.10;0.10;;;13.20;99.90;;;;;;5076999;28;20017;-76
2022/05/28 05:53:16;;;;;;;0.25;0.25;;;13.50;99.90;;;;;;5044932;28;20061;-76
2022/05/28 05:55:43;;;;;;;0.10;0.10;;;13.60;99.90;;;;;;5058761;28;20480;-77
2022/05/28 05:58:09;;;;;;;0.10;0.10;;;13.60;99.90;;;;;;5041007;28;20029;-77
2022/05/28 06:00:35;;;;;;;0.10;0.10;;;13.60;99.90;;;;;;5040140;28;20055;-76
2022/05/28 06:03:01;;;;;;;0.20;0.20;;;13.80;99.90;;;;;;5039602;28;20032;-77
2022/05/28 06:05:27;;;;;;;0.10;0.10;;;13.80;99.90;;;;;;5057238;28;20052;-77
2022/05/28 06:07:52;;;;;;;0.10;0.10;;;14.00;99.90;;;;;;5068549;22;20044;-73
2022/05/28 06:10:19;;;;;;;0.30;0.30;;;14.00;99.90;;;;;;5061218;28;20021;-73
2022/05/28 06:12:45;;;;;;;0.10;0.10;;;14.20;99.90;;;;;;5054711;28;20025;-74
2022/05/28 06:15:12;;;;;;;0.10;0.10;;;14.20;99.90;;;;;;5037014;28;20075;-74
2022/05/28 06:17:38;;;;;;;0.40;0.40;;;13.90;99.90;;;;;;5036646;28;20025;-74
2022/05/28 06:20:10;;;;;;;0.20;0.20;;;13.60;99.90;;;;;;5054795;28;20029;-74
2022/05/28 06:22:36;;;;;;;0.10;0.10;;;13.60;99.90;;;;;;5010957;28;20136;-74
2022/05/28 06:25:03;;;;;;;0.25;0.25;;;13.60;99.90;;;;;;5034615;28;20536;-74
2022/05/28 06:27:28;;;;;;;0.20;0.20;;;13.50;99.90;;;;;;5018276;28;20476;-74
2022/05/28 06:29:54;;;;;;;0.10;0.10;;;13.50;99.90;;;;;;5058190;28;20032;-74
2022/05/28 06:32:20;;;;;;;0.10;0.10;;;13.50;99.90;;;;;;5061467;28;20020;-74
2022/05/28 06:34:45;;;;;;;0.20;0.20;;;13.60;99.90;;;;;;5074382;28;20017;-74
2022/05/28 06:37:15;;;;;;;0.10;0.10;;;13.80;99.90;;;;;;5060578;28;20082;-74
2022/05/28 06:39:41;;;;;;;0.22;0.22;;;13.70;99.90;;;;;;5025720;28;20025;-74
2022/05/28 06:42:08;;;;;;;0.75;0.75;;;13.70;99.90;;;;;;5020949;28;20472;-74
2022/05/28 06:44:34;;;;;;;0.15;0.15;;;13.50;99.90;;;;;;5070833;28;20055;-74
2022/05/28 06:47:00;;;;;;;0.85;0.85;;;13.50;99.90;;;;;;5053763;28;20021;-74
2022/05/28 06:49:25;;;;;;;0.10;0.10;;;13.40;99.90;;;;;;5053992;28;20021;-74
2022/05/28 06:51:52;;;;;;;0.63;0.63;;;13.40;99.90;;;;;;5053990;28;20108;-74
2022/05/28 06:54:18;;;;;;;0.10;0.10;;;13.40;99.90;;;;;;5052603;28;20036;-74
2022/05/28 06:56:44;;;;;;;0.20;0.20;;;13.40;99.90;;;;;;5053633;28;20032;-74
2022/05/28 06:59:10;;;;;;;0.20;0.20;;;13.30;99.90;;;;;;5015526;28;20025;-74
2022/05/28 07:01:36;;;;;;;0.20;0.20;;;13.40;99.90;;;;;;5047867;28;20532;-74
2022/05/28 07:04:02;;;;;;;0.35;0.35;;;13.20;99.90;;;;;;5059648;28;20112;-74
2022/05/28 07:06:29;;;;;;;0.17;0.17;;;13.20;99.90;;;;;;5035864;28;20021;-74
2022/05/28 07:08:55;;;;;;;0.10;0.10;;;13.40;99.90;;;;;;5019139;28;20372;-74
2022/05/28 07:11:21;;;;;;;0.10;0.10;;;13.30;99.90;;;;;;5053676;28;20465;-74
2022/05/28 07:13:46;;;;;;;0.30;0.30;;;13.40;99.90;;;;;;5035452;28;20036;-74
2022/05/28 07:16:12;;;;;;;0.20;0.20;;;13.60;99.90;;;;;;5026628;28;20029;-74
2022/05/28 07:18:39;;;;;;;0.10;0.10;;;13.50;99.90;;;;;;5015429;28;20112;-74
2022/05/28 07:21:07;;;;;;;0.80;0.68;;;13.60;99.90;;;;;;5029344;28;20025;-74
2022/05/28 07:23:33;;;;;;;0.10;0.10;;;13.70;99.90;;;;;;5053450;28;20029;-74
2022/05/28 07:26:11;;;;;;;0.10;0.10;;;13.60;99.90;;;;;;5035377;28;20027;-74
2022/05/28 07:28:39;;;;;;;0.10;0.10;;;13.80;99.90;;;;;;5033875;28;20412;-74
2022/05/28 07:31:09;;;;;;;0.10;0.10;;;14.10;99.90;;;;;;5041660;28;20031;-74
2022/05/28 07:33:38;;;;;;;1.75;1.13;;;14.20;99.90;;;;;;5063874;28;20622;-74
2022/05/28 07:36:06;;;;;;;0.30;0.30;;;14.00;99.90;;;;;;5034305;28;20035;-74
2022/05/28 07:38:33;;;;;;;1.25;1.10;;;13.90;99.90;;;;;;5020352;28;20029;-74
2022/05/28 07:41:04;;;;;;;0.17;0.17;;;14.10;99.90;;;;;;5034172;28;20029;-76
2022/05/28 07:43:31;;;;;;;0.65;0.65;;;14.10;99.90;;;;;;5052205;28;20021;-74
2022/05/28 07:45:56;;;;;;;0.10;0.10;;;14.30;99.90;;;;;;5018433;28;20031;-74
2022/05/28 07:48:22;;;;;;;1.77;0.80;;;14.30;99.90;;;;;;5052156;28;20450;-74
2022/05/28 07:50:48;;;;;;;0.45;0.45;;;14.30;99.90;;;;;;5034814;28;20033;-74
2022/05/28 07:53:14;;;;;;;0.10;0.10;;;14.20;99.90;;;;;;5035041;28;20025;-74
2022/05/28 07:55:40;;;;;;;0.10;0.10;;;14.30;99.90;;;;;;5052870;28;20377;-74
2022/05/28 07:58:09;;;;;;;0.10;0.10;;;14.30;99.90;;;;;;5018230;28;20024;-74
2022/05/28 08:00:47;;;;;;;0.10;0.10;;;14.40;99.90;;;;;;5052840;28;20025;-74
2022/05/28 08:03:14;;;;;;;0.20;0.20;;;14.40;99.90;;;;;;5052733;28;20116;-74
2022/05/28 08:05:42;;;;;;;0.30;0.30;;;14.40;99.90;;;;;;5035284;28;20021;-76
2022/05/28 08:08:08;;;;;;;0.10;0.10;;;14.40;99.90;;;;;;5052347;28;20036;-77
2022/05/28 08:10:35;;;;;;;0.68;0.68;;;14.40;99.90;;;;;;5034864;28;20155;-75
2022/05/28 08:13:03;;;;;;;0.13;0.13;;;14.50;99.90;;;;;;5034392;28;20067;-74
2022/05/28 08:15:29;;;;;;;0.10;0.10;;;14.50;99.90;;;;;;5033772;28;20078;-74
2022/05/28 08:17:55;;;;;;;0.10;0.10;;;14.50;99.90;;;;;;5052149;28;20484;-74
2022/05/28 08:23:08;;;;;;;0.10;0.10;;;14.50;99.90;;;;;;5052003;28;20110;-75
2022/05/28 08:23:09;;;;;;;3.10;0.68;;;14.80;99.90;;;;;;5033856;28;20032;-75
2022/05/28 08:25:37;;;;;;;0.10;0.10;;;14.80;99.90;;;;;;5034401;28;20025;-74
2022/05/28 08:28:03;;;;;;;0.10;0.10;;;14.90;99.90;;;;;;5033926;28;20032;-75
2022/05/28 08:30:29;;;;;;;0.10;0.10;;;15.40;99.90;;;;;;5051872;28;20025;-74
2022/05/28 08:32:54;;;;;;;0.20;0.20;;;16.00;99.90;;;;;;5017792;28;20028;-74
2022/05/28 08:35:21;;;;;;;0.15;0.15;;;15.90;99.90;;;;;;5052211;28;20047;-74
2022/05/28 08:37:47;;;;;;;0.38;0.38;;;15.60;99.90;;;;;;5051764;28;20544;-74
2022/05/28 08:40:14;;;;;;;0.10;0.10;;;15.20;99.90;;;;;;5052011;28;20048;-74
2022/05/28 08:42:41;;;;;;;0.20;0.20;;;15.30;99.90;;;;;;5034007;28;20099;-74
2022/05/28 08:45:08;;;;;;;0.08;0.08;;;15.20;99.90;;;;;;5051748;28;20098;-74
2022/05/28 08:47:40;;;;;;;0.10;0.10;;;15.10;99.90;;;;;;5033557;28;20017;-74
2022/05/28 08:50:07;;;;;;;2.05;0.28;;;15.30;99.90;;;;;;5033951;28;20028;-74
2022/05/28 08:52:38;;;;;;;0.10;0.10;;;15.40;99.90;;;;;;5051827;28;20667;-74
2022/05/28 08:55:16;;;;;;;0.13;0.13;;;15.40;98.70;;;;;;5033683;28;20421;-74
2022/05/28 08:58:04;;;;;;;3.20;0.90;;;15.30;98.90;;;;;;5051336;28;20033;-74
2022/05/28 09:00:52;;;;;;;0.10;0.10;;;15.10;98.90;;;;;;5033385;28;20028;-74
2022/05/28 09:03:22;;;;;;;0.10;0.10;;;15.20;97.50;;;;;;5051531;28;20103;-74
2022/05/28 09:06:06;;;;;;;0.20;0.20;;;15.10;96.10;;;;;;5033587;28;20039;-74
2022/05/28 09:08:39;;;;;;;0.40;0.40;;;15.10;94.80;;;;;;5033693;28;20032;-74
2022/05/28 09:11:37;;;;;;;0.10;0.10;;;14.90;94.70;;;;;;5051484;28;20100;-74
2022/05/28 09:14:20;;;;;;;0.25;0.25;;;14.80;95.80;;;;;;5013473;28;20532;-74
2022/05/28 09:16:47;;;;;;;0.10;0.10;;;14.90;95.10;;;;;;5033609;28;20048;-74
2022/05/28 09:19:19;;;;;;;0.17;0.17;;;15.10;94.30;;;;;;5050900;28;20440;-74
2022/05/28 09:21:46;;;;;;;0.10;0.10;;;15.40;93.20;;;;;;5050467;28;20029;-74
2022/05/28 09:24:31;;;;;;;0.70;0.68;;;15.80;92.70;;;;;;5051363;28;20033;-74
2022/05/28 09:27:16;;;;;;;0.93;0.68;;;15.90;88.70;;;;;;5033472;28;20140;-74
2022/05/28 09:30:03;;;;;;;0.20;0.20;;;15.70;87.70;;;;;;5033704;28;20554;-74
2022/05/28 09:32:47;;;;;;;0.20;0.20;;;16.30;88.80;;;;;;5051449;28;20055;-74
2022/05/28 09:35:43;;;;;;;4.75;1.20;;;16.60;84.90;;;;;;5051463;28;20384;-74
2022/05/28 09:38:20;;;;;;;0.40;0.40;;;16.40;83.60;;;;;;5016895;28;20025;-74
2022/05/28 09:41:12;;;;;;;0.98;0.65;;;16.20;85.60;;;;;;5051400;28;20025;-74
2022/05/28 09:44:22;;;;;;;1.98;0.85;;;16.20;85.90;;;;;;5051129;28;20029;-74
2022/05/28 09:46:48;;;;;;;0.20;0.20;;;16.10;85.80;;;;;;5027478;28;20144;-74
2022/05/28 09:49:20;;;;;;;0.10;0.10;;;16.00;87.60;;;;;;5051043;28;20036;-74
2022/05/28 09:52:09;;;;;;;0.10;0.10;;;16.10;85.70;;;;;;5051380;28;20048;-74
2022/05/28 09:54:36;;;;;;;0.20;0.20;;;16.50;84.60;;;;;;5051346;28;20036;-75
2022/05/28 09:57:21;;;;;;;0.20;0.20;;;16.70;82.50;;;;;;5033254;28;20028;-74
2022/05/28 09:59:47;;;;;;;0.60;0.60;;;16.60;83.30;;;;;;5033426;28;20021;-74
2022/05/28 10:02:26;;;;;;;0.08;0.08;;;16.10;83.80;;;;;;5033454;28;20025;-74
2022/05/28 10:04:54;;;;;;;8.27;1.55;;;15.60;86.10;;;;;;5016759;28;20040;-74
2022/05/28 10:07:36;;;;;;;0.10;0.10;;;16.00;85.90;;;;;;5033174;28;20111;-74
2022/05/28 10:10:21;;;;;;;0.10;0.10;;;16.70;80.60;;;;;;5051280;28;20025;-74
2022/05/28 10:12:47;;;;;;;0.10;0.10;;;17.60;77.50;;;;;;5052723;28;20029;-75
2022/05/28 10:15:20;;;;;;;0.20;0.20;;;17.90;75.70;;;;;;5036810;28;20480;-74
2022/05/28 10:18:09;;;;;;;0.35;0.35;;;17.20;72.70;;;;;;5054342;28;20404;-74
2022/05/28 10:20:35;;;;;;;0.68;0.52;;;16.40;73.40;;;;;;5054394;28;20500;-74
2022/05/28 10:23:07;;;;;;;1.33;0.73;;;16.90;75.50;;;;;;5036787;28;20032;-74
2022/05/28 10:25:37;;;;;;;0.20;0.20;;;16.40;74.40;;;;;;5054721;28;20151;-74
2022/05/28 10:28:04;;;;;;;1.13;0.70;;;16.50;73.50;;;;;;5036468;28;20063;-74
2022/05/28 10:30:36;;;;;;;0.25;0.25;;;16.70;72.80;;;;;;5036963;28;20032;-79
2022/05/28 10:33:12;;;;;;;0.20;0.20;;;16.70;71.50;;;;;;5054918;28;20029;-74
2022/05/28 10:35:39;;;;;;;0.98;0.50;;;16.50;70.10;;;;;;5054177;28;20051;-75
2022/05/28 10:38:22;;;;;;;0.40;0.40;;;16.60;69.90;;;;;;5053968;28;20035;-74
2022/05/28 10:40:56;;;;;;;0.70;0.40;;;16.70;70.60;;;;;;5053984;28;20035;-74
2022/05/28 10:43:32;;;;;;;4.47;1.55;;;16.70;70.50;;;;;;5054009;28;20105;-74
2022/05/28 10:46:23;;;;;;;0.10;0.10;;;16.70;69.30;;;;;;5054173;28;20031;-74
2022/05/28 10:49:16;;;;;;;0.20;0.20;;;16.90;71.50;;;;;;5036173;28;20044;-74
2022/05/28 10:52:02;;;;;;;0.20;0.20;;;17.30;68.80;;;;;;5036371;28;20100;-74
2022/05/28 10:54:37;;;;;;;0.30;0.30;;;17.30;67.50;;;;;;5036335;28;20025;-74
2022/05/28 10:57:25;;;;;;;0.10;0.10;;;17.10;67.70;;;;;;5053873;28;20070;-74
2022/05/28 10:59:51;;;;;;;0.20;0.20;;;17.00;68.90;;;;;;5053903;28;20037;-74
2022/05/28 11:02:19;;;;;;;0.20;0.20;;;16.80;70.00;;;;;;5035879;28;20049;-74
2022/05/28 11:04:48;;;;;;;0.15;0.15;;;16.80;70.00;;;;;;5035880;28;20431;-75
2022/05/28 11:07:56;;;;;;;0.10;0.10;;;17.00;69.20;;;;;;5035644;28;20025;-75
2022/05/28 11:10:22;;;;;;;0.05;0.05;;;17.80;68.20;;;;;;4975793;28;20394;-74
2022/05/28 11:13:00;;;;;;;0.25;0.25;;;18.20;64.60;;;;;;5044109;28;20037;-74
2022/05/28 11:15:36;;;;;;;0.10;0.10;;;18.60;63.40;;;;;;5053619;28;20040;-74
2022/05/28 11:18:23;;;;;;;0.10;0.10;;;19.10;63.80;;;;;;5052961;28;20516;-74
2022/05/28 11:21:23;;;;;;;1.95;0.80;;;18.90;62.70;;;;;;5053439;28;20028;-74
2022/05/28 11:24:07;;;;;;;0.10;0.10;;;18.00;61.20;;;;;;5053117;28;20025;-75
2022/05/28 11:27:16;;;;;;;0.10;0.10;;;17.80;62.40;;;;;;5053452;28;20021;-74
2022/05/28 11:30:17;;;;;;;0.10;0.10;;;17.60;63.00;;;;;;5053836;28;20075;-74
2022/05/28 11:33:27;;;;;;;0.20;0.20;;;17.60;63.30;;;;;;5050228;28;20041;-74
2022/05/28 11:36:00;;;;;;;0.25;0.25;;;17.50;63.10;;;;;;5013319;28;20287;-74
2022/05/28 11:38:33;;;;;;;0.90;0.90;;;17.90;61.90;;;;;;5052996;28;20032;-74
2022/05/28 11:41:18;;;;;;;0.10;0.10;;;17.90;62.70;;;;;;5053144;28;20527;-74
2022/05/28 11:44:13;;;;;;;0.10;0.10;;;17.50;61.70;;;;;;5035434;28;20083;-75
2022/05/28 11:46:48;;;;;;;0.10;0.10;;;17.60;62.50;;;;;;5047230;28;20580;-74
2022/05/28 11:52:05;;;;;;;0.20;0.20;;;17.50;61.90;;;;;;5035049;28;20024;-75
2022/05/28 11:54:34;;;;;;;0.10;0.10;;;17.20;61.70;;;;;;5052780;28;20040;-75
2022/05/28 11:57:06;;;;;;;0.00;0.00;;;17.40;63.10;;;;;;5052347;28;20047;-75
2022/05/28 11:59:37;;;;;;;0.10;0.10;;;17.50;61.80;;;;;;5034953;28;20435;-75
2022/05/28 12:02:10;;;;;;;0.10;0.10;;;17.80;61.30;;;;;;5052729;28;20032;-75
2022/05/28 12:04:41;;;;;;;0.10;0.10;;;17.80;62.50;;;;;;5034706;28;20028;-74
2022/05/28 12:07:15;;;;;;;0.10;0.10;;;17.80;61.20;;;;;;5066817;22;20095;-73
2022/05/28 12:09:44;;;;;;;0.10;0.10;;;17.80;62.50;;;;;;5053306;28;20833;-73
2022/05/28 12:12:24;;;;;;;0.10;0.10;;;18.00;62.80;;;;;;5037452;28;20365;-74
2022/05/28 12:15:28;;;;;;;0.10;0.10;;;17.80;62.80;;;;;;5037479;28;20016;-75
2022/05/28 12:18:24;;;;;;;0.10;0.10;;;17.80;62.00;;;;;;5034798;28;20021;-74
2022/05/28 12:20:58;;;;;;;0.20;0.20;;;17.60;61.50;;;;;;5034746;28;20075;-75
2022/05/28 12:23:40;;;;;;;0.10;0.10;;;17.50;62.20;;;;;;5052873;28;20029;-75
2022/05/28 12:29:33;;;;;;;0.10;0.10;;;17.40;62.40;;;;;;5052846;28;20103;-75
2022/05/28 12:32:17;;;;;;;0.20;0.20;;;17.30;62.70;;;;;;5034685;28;20028;-74
2022/05/28 12:35:03;;;;;;;0.10;0.10;;;17.50;63.10;;;;;;5034484;28;20029;-75
2022/05/28 12:37:45;;;;;;;0.10;0.10;;;17.70;64.30;;;;;;5034187;28;20063;-75
2022/05/28 12:40:26;;;;;;;0.13;0.13;;;17.70;61.80;;;;;;5034474;28;20017;-74
2022/05/28 12:42:53;;;;;;;0.10;0.10;;;17.40;62.60;;;;;;5034088;28;20041;-74
2022/05/28 12:45:38;;;;;;;0.15;0.15;;;17.50;63.90;;;;;;5052086;28;20074;-74
2022/05/28 12:48:19;;;;;;;0.38;0.20;;;17.20;64.30;;;;;;5051807;28;20566;-74
2022/05/28 12:50:59;;;;;;;0.10;0.10;;;17.00;63.80;;;;;;5052312;28;20017;-74
2022/05/28 12:53:27;;;;;;;0.30;0.30;;;17.00;63.90;;;;;;5033986;28;20044;-75
2022/05/28 12:56:19;;;;;;;0.30;0.30;;;16.70;63.40;;;;;;5034046;28;20021;-74
2022/05/28 12:58:45;;;;;;;;;;;16.50;65.50;;;;;;5052261;28;20056;-74
2022/05/28 13:01:25;;;;;;;0.22;0.22;;;16.70;65.50;;;;;;5050603;28;19904;-74
2022/05/28 13:03:52;;;;;;;0.10;0.10;;;16.70;66.10;;;;;;5052675;28;20047;-75
2022/05/28 13:06:46;;;;;;;0.60;0.60;;;16.80;65.00;;;;;;5052607;28;20036;-74
2022/05/28 13:09:12;;;;;;;0.08;0.08;;;16.80;63.90;;;;;;5051562;28;20033;-75
2022/05/28 13:12:18;;;;;;;0.10;0.10;;;16.90;64.90;;;;;;5033924;28;20457;-74
2022/05/28 13:15:18;;;;;;;0.10;0.10;;;17.00;64.30;;;;;;5052159;28;20036;-75
2022/05/28 13:17:49;;;;;;;0.55;0.55;;;16.80;63.60;;;;;;5051602;28;20025;-75
2022/05/28 13:20:27;;;;;;;0.10;0.10;;;17.00;64.30;;;;;;5051815;28;20025;-74